sensor_id;sensor_type;location;lat;lon;timestamp;P1;durP1;ratioP1;P2;durP2;ratioP2
537;SDS011;254;48.524;8.926;2022-08-03T00:00:02;4.9;;;4.0;;
537;SDS011;254;48.524;8.926;2022-08-03T00:01:02;4.4;;;3.9;;
537;SDS011;254;48.524;8.926;2022-08-03T00:02:02;4.6;;;4.0;;
537;SDS011;254;48.524;8.926;2022-08-03T00:03:02;6.7;;;4.0;;
537;SDS011;254;48.524;8.926;2022-08-03T00:04:03;4.7;;;4.3;;
537;SDS011;254;48.524;8.926;2022-08-03T00:05:02;4.9;;;4.5;;
537;SDS011;254;48.524;8.926;2022-08-03T00:06:02;4.9;;;4.5;;
537;SDS011;254;48.524;8.926;2022-08-03T00:07:03;4.8;;;4.4;;
537;SDS011;254;48.524;8.926;2022-08-03T00:08:02;7.5;;;4.9;;
537;SDS011;254;48.524;8.926;2022-08-03T00:09:02;6.3;;;4.9;;
537;SDS011;254;48.524;8.926;2022-08-03T00:10:03;5.3;;;4.8;;
537;SDS011;254;48.524;8.926;2022-08-03T00:11:02;5.0;;;4.5;;
537;SDS011;254;48.524;8.926;2022-08-03T00:12:02;6.3;;;4.5;;
537;SDS011;254;48.524;8.926;2022-08-03T00:13:02;6.3;;;4.5;;
537;SDS011;254;48.524;8.926;2022-08-03T00:14:02;5.8;;;4.6;;
537;SDS011;254;48.524;8.926;2022-08-03T00:15:03;5.7;;;4.7;;
537;SDS011;254;48.524;8.926;2022-08-03T00:16:02;6.3;;;4.7;;
537;SDS011;254;48.524;8.926;2022-08-03T00:17:03;6.2;;;4.7;;
537;SDS011;254;48.524;8.926;2022-08-03T00:18:02;4.9;;;4.4;;
537;SDS011;254;48.524;8.926;2022-08-03T00:19:02;5.8;;;5.2;;
537;SDS011;254;48.524;8.926;2022-08-03T00:20:03;5.9;;;4.5;;
537;SDS011;254;48.524;8.926;2022-08-03T00:21:02;7.7;;;4.6;;
537;SDS011;254;48.524;8.926;2022-08-03T00:22:02;7.7;;;4.1;;
537;SDS011;254;48.524;8.926;2022-08-03T00:23:03;4.7;;;4.2;;
537;SDS011;254;48.524;8.926;2022-08-03T00:24:02;5.0;;;4.6;;
537;SDS011;254;48.524;8.926;2022-08-03T00:25:03;5.0;;;4.5;;
537;SDS011;254;48.524;8.926;2022-08-03T00:26:01;4.5;;;4.2;;
537;SDS011;254;48.524;8.926;2022-08-03T00:27:02;4.9;;;4.4;;
537;SDS011;254;48.524;8.926;2022-08-03T00:28:03;5.9;;;4.4;;
537;SDS011;254;48.524;8.926;2022-08-03T00:29:02;5.2;;;4.4;;
537;SDS011;254;48.524;8.926;2022-08-03T00:30:03;5.5;;;4.3;;
537;SDS011;254;48.524;8.926;2022-08-03T00:31:02;4.6;;;4.2;;
537;SDS011;254;48.524;8.926;2022-08-03T00:32:03;4.7;;;4.2;;
537;SDS011;254;48.524;8.926;2022-08-03T00:33:01;5.4;;;4.5;;
537;SDS011;254;48.524;8.926;2022-08-03T00:34:02;4.9;;;4.4;;
537;SDS011;254;48.524;8.926;2022-08-03T00:35:03;5.3;;;4.8;;
537;SDS011;254;48.524;8.926;2022-08-03T00:36:02;5.1;;;4.5;;
537;SDS011;254;48.524;8.926;2022-08-03T00:37:02;4.4;;;4.0;;
537;SDS011;254;48.524;8.926;2022-08-03T00:38:02;4.7;;;4.2;;
537;SDS011;254;48.524;8.926;2022-08-03T00:39:03;4.6;;;4.2;;
537;SDS011;254;48.524;8.926;2022-08-03T00:40:03;5.1;;;4.7;;
537;SDS011;254;48.524;8.926;2022-08-03T00:41:02;6.0;;;4.3;;
537;SDS011;254;48.524;8.926;2022-08-03T00:42:02;5.0;;;4.4;;
537;SDS011;254;48.524;8.926;2022-08-03T00:43:03;5.8;;;4.4;;
537;SDS011;254;48.524;8.926;2022-08-03T00:44:02;5.5;;;4.7;;
537;SDS011;254;48.524;8.926;2022-08-03T00:45:03;4.6;;;4.2;;
537;SDS011;254;48.524;8.926;2022-08-03T00:46:02;5.1;;;4.6;;
537;SDS011;254;48.524;8.926;2022-08-03T00:47:02;5.1;;;4.6;;
537;SDS011;254;48.524;8.926;2022-08-03T00:48:02;5.0;;;4.5;;
537;SDS011;254;48.524;8.926;2022-08-03T00:49:02;4.9;;;4.3;;
537;SDS011;254;48.524;8.926;2022-08-03T00:50:03;5.6;;;5.0;;
537;SDS011;254;48.524;8.926;2022-08-03T00:51:02;4.9;;;4.4;;
537;SDS011;254;48.524;8.926;2022-08-03T00:52:03;4.8;;;4.4;;
537;SDS011;254;48.524;8.926;2022-08-03T00:53:02;4.4;;;3.9;;
537;SDS011;254;48.524;8.926;2022-08-03T00:54:02;4.9;;;4.5;;
537;SDS011;254;48.524;8.926;2022-08-03T00:55:03;4.8;;;4.0;;
537;SDS011;254;48.524;8.926;2022-08-03T00:56:02;5.0;;;4.2;;
537;SDS011;254;48.524;8.926;2022-08-03T00:57:02;5.0;;;4.5;;
537;SDS011;254;48.524;8.926;2022-08-03T00:58:02;4.9;;;4.4;;
537;SDS011;254;48.524;8.926;2022-08-03T00:59:02;5.7;;;4.3;;
537;SDS011;254;48.524;8.926;2022-08-03T01:00:03;7.7;;;4.3;;
537;SDS011;254;48.524;8.926;2022-08-03T01:01:02;4.3;;;3.9;;
537;SDS011;254;48.524;8.926;2022-08-03T01:02:04;4.8;;;4.4;;
537;SDS011;254;48.524;8.926;2022-08-03T01:03:02;4.7;;;4.3;;
537;SDS011;254;48.524;8.926;2022-08-03T01:04:02;4.9;;;4.4;;
537;SDS011;254;48.524;8.926;2022-08-03T01:05:03;4.3;;;3.9;;
537;SDS011;254;48.524;8.926;2022-08-03T01:06:03;7.0;;;4.3;;
537;SDS011;254;48.524;8.926;2022-08-03T01:07:05;5.2;;;4.2;;
537;SDS011;254;48.524;8.926;2022-08-03T01:08:03;4.4;;;3.5;;
537;SDS011;254;48.524;8.926;2022-08-03T01:09:04;5.3;;;4.1;;
537;SDS011;254;48.524;8.926;2022-08-03T01:10:05;4.7;;;4.0;;
537;SDS011;254;48.524;8.926;2022-08-03T01:11:05;5.0;;;4.1;;
537;SDS011;254;48.524;8.926;2022-08-03T01:12:03;4.2;;;3.8;;
537;SDS011;254;48.524;8.926;2022-08-03T01:13:03;4.4;;;4.0;;
537;SDS011;254;48.524;8.926;2022-08-03T01:14:03;4.4;;;4.0;;
537;SDS011;254;48.524;8.926;2022-08-03T01:15:04;7.9;;;4.2;;
537;SDS011;254;48.524;8.926;2022-08-03T01:16:05;4.3;;;3.9;;
537;SDS011;254;48.524;8.926;2022-08-03T01:17:04;3.9;;;3.6;;
537;SDS011;254;48.524;8.926;2022-08-03T01:18:05;4.8;;;3.8;;
537;SDS011;254;48.524;8.926;2022-08-03T01:19:06;4.2;;;3.9;;
537;SDS011;254;48.524;8.926;2022-08-03T01:20:03;5.8;;;4.0;;
537;SDS011;254;48.524;8.926;2022-08-03T01:21:03;4.1;;;3.7;;
537;SDS011;254;48.524;8.926;2022-08-03T01:22:05;7.6;;;3.6;;
537;SDS011;254;48.524;8.926;2022-08-03T01:23:05;4.4;;;3.5;;
537;SDS011;254;48.524;8.926;2022-08-03T01:24:03;4.6;;;3.7;;
537;SDS011;254;48.524;8.926;2022-08-03T01:25:05;4.3;;;3.9;;
537;SDS011;254;48.524;8.926;2022-08-03T01:26:05;4.5;;;4.1;;
537;SDS011;254;48.524;8.926;2022-08-03T01:27:04;5.1;;;3.9;;
537;SDS011;254;48.524;8.926;2022-08-03T01:28:06;4.7;;;4.3;;
537;SDS011;254;48.524;8.926;2022-08-03T01:29:03;4.3;;;3.9;;
537;SDS011;254;48.524;8.926;2022-08-03T01:30:03;4.8;;;3.9;;
537;SDS011;254;48.524;8.926;2022-08-03T01:31:04;5.9;;;4.7;;
537;SDS011;254;48.524;8.926;2022-08-03T01:32:04;4.3;;;4.0;;
537;SDS011;254;48.524;8.926;2022-08-03T01:33:03;4.5;;;4.1;;
537;SDS011;254;48.524;8.926;2022-08-03T01:34:02;4.6;;;4.2;;
537;SDS011;254;48.524;8.926;2022-08-03T01:35:04;5.2;;;4.7;;
537;SDS011;254;48.524;8.926;2022-08-03T01:36:03;5.5;;;4.4;;
537;SDS011;254;48.524;8.926;2022-08-03T01:37:02;6.7;;;4.5;;
537;SDS011;254;48.524;8.926;2022-08-03T01:38:02;5.6;;;4.3;;
537;SDS011;254;48.524;8.926;2022-08-03T01:39:03;4.8;;;4.4;;
537;SDS011;254;48.524;8.926;2022-08-03T01:40:05;5.5;;;4.5;;
537;SDS011;254;48.524;8.926;2022-08-03T01:41:03;4.8;;;4.4;;
537;SDS011;254;48.524;8.926;2022-08-03T01:42:03;4.9;;;4.5;;
537;SDS011;254;48.524;8.926;2022-08-03T01:43:02;7.0;;;4.4;;
537;SDS011;254;48.524;8.926;2022-08-03T01:44:03;5.1;;;4.7;;
537;SDS011;254;48.524;8.926;2022-08-03T01:45:03;4.6;;;4.2;;
537;SDS011;254;48.524;8.926;2022-08-03T01:46:02;5.5;;;5.0;;
537;SDS011;254;48.524;8.926;2022-08-03T01:47:03;5.4;;;4.9;;
537;SDS011;254;48.524;8.926;2022-08-03T01:48:02;5.0;;;4.6;;
537;SDS011;254;48.524;8.926;2022-08-03T01:49:02;6.2;;;4.8;;
537;SDS011;254;48.524;8.926;2022-08-03T01:50:02;5.2;;;4.5;;
537;SDS011;254;48.524;8.926;2022-08-03T01:51:03;7.8;;;4.7;;
537;SDS011;254;48.524;8.926;2022-08-03T01:52:01;5.0;;;4.6;;
537;SDS011;254;48.524;8.926;2022-08-03T01:53:02;9.4;;;4.5;;
537;SDS011;254;48.524;8.926;2022-08-03T01:54:03;4.6;;;4.2;;
537;SDS011;254;48.524;8.926;2022-08-03T01:55:03;5.9;;;4.3;;
537;SDS011;254;48.524;8.926;2022-08-03T01:56:03;5.2;;;4.3;;
537;SDS011;254;48.524;8.926;2022-08-03T01:57:02;5.1;;;4.6;;
537;SDS011;254;48.524;8.926;2022-08-03T01:58:02;5.4;;;4.2;;
537;SDS011;254;48.524;8.926;2022-08-03T01:59:02;4.5;;;4.2;;
537;SDS011;254;48.524;8.926;2022-08-03T02:00:02;4.8;;;4.0;;
537;SDS011;254;48.524;8.926;2022-08-03T02:01:04;4.4;;;4.0;;
537;SDS011;254;48.524;8.926;2022-08-03T02:02:02;4.6;;;4.1;;
537;SDS011;254;48.524;8.926;2022-08-03T02:03:03;7.0;;;4.3;;
537;SDS011;254;48.524;8.926;2022-08-03T02:04:04;4.4;;;4.0;;
537;SDS011;254;48.524;8.926;2022-08-03T02:05:03;4.8;;;4.2;;
537;SDS011;254;48.524;8.926;2022-08-03T02:06:02;5.0;;;4.5;;
537;SDS011;254;48.524;8.926;2022-08-03T02:07:02;4.8;;;4.3;;
537;SDS011;254;48.524;8.926;2022-08-03T02:08:03;4.9;;;4.5;;
537;SDS011;254;48.524;8.926;2022-08-03T02:09:02;4.7;;;4.3;;
537;SDS011;254;48.524;8.926;2022-08-03T02:10:03;5.1;;;4.6;;
537;SDS011;254;48.524;8.926;2022-08-03T02:11:02;4.8;;;4.3;;
537;SDS011;254;48.524;8.926;2022-08-03T02:12:03;4.7;;;4.3;;
537;SDS011;254;48.524;8.926;2022-08-03T02:13:03;4.6;;;4.2;;
537;SDS011;254;48.524;8.926;2022-08-03T02:14:03;4.5;;;4.1;;
537;SDS011;254;48.524;8.926;2022-08-03T02:15:03;4.4;;;4.0;;
537;SDS011;254;48.524;8.926;2022-08-03T02:16:03;4.9;;;4.5;;
537;SDS011;254;48.524;8.926;2022-08-03T02:17:02;4.8;;;4.4;;
537;SDS011;254;48.524;8.926;2022-08-03T02:18:04;5.5;;;4.1;;
537;SDS011;254;48.524;8.926;2022-08-03T02:19:03;5.4;;;4.3;;
537;SDS011;254;48.524;8.926;2022-08-03T02:20:02;4.8;;;4.3;;
537;SDS011;254;48.524;8.926;2022-08-03T02:21:02;5.8;;;4.3;;
537;SDS011;254;48.524;8.926;2022-08-03T02:22:03;4.9;;;4.1;;
537;SDS011;254;48.524;8.926;2022-08-03T02:23:02;6.2;;;4.2;;
537;SDS011;254;48.524;8.926;2022-08-03T02:24:03;4.9;;;4.4;;
537;SDS011;254;48.524;8.926;2022-08-03T02:25:02;5.7;;;4.3;;
537;SDS011;254;48.524;8.926;2022-08-03T02:26:04;4.7;;;4.3;;
537;SDS011;254;48.524;8.926;2022-08-03T02:27:02;6.9;;;4.5;;
537;SDS011;254;48.524;8.926;2022-08-03T02:28:05;4.9;;;4.4;;
537;SDS011;254;48.524;8.926;2022-08-03T02:29:04;5.4;;;4.8;;
537;SDS011;254;48.524;8.926;2022-08-03T02:30:04;6.0;;;4.7;;
537;SDS011;254;48.524;8.926;2022-08-03T02:31:08;7.3;;;4.8;;
537;SDS011;254;48.524;8.926;2022-08-03T02:32:02;6.7;;;4.9;;
537;SDS011;254;48.524;8.926;2022-08-03T02:33:02;8.3;;;4.8;;
537;SDS011;254;48.524;8.926;2022-08-03T02:34:05;5.7;;;4.7;;
537;SDS011;254;48.524;8.926;2022-08-03T02:35:03;6.4;;;5.0;;
537;SDS011;254;48.524;8.926;2022-08-03T02:36:03;7.9;;;4.9;;
537;SDS011;254;48.524;8.926;2022-08-03T02:37:02;5.2;;;4.3;;
537;SDS011;254;48.524;8.926;2022-08-03T02:38:03;6.7;;;4.8;;
537;SDS011;254;48.524;8.926;2022-08-03T02:39:02;5.1;;;4.5;;
537;SDS011;254;48.524;8.926;2022-08-03T02:40:03;5.5;;;4.9;;
537;SDS011;254;48.524;8.926;2022-08-03T02:41:02;5.4;;;4.9;;
537;SDS011;254;48.524;8.926;2022-08-03T02:42:02;5.2;;;4.7;;
537;SDS011;254;48.524;8.926;2022-08-03T02:43:02;5.2;;;4.7;;
537;SDS011;254;48.524;8.926;2022-08-03T02:44:07;5.1;;;4.6;;
537;SDS011;254;48.524;8.926;2022-08-03T02:45:04;5.4;;;4.7;;
537;SDS011;254;48.524;8.926;2022-08-03T02:46:02;5.5;;;4.6;;
537;SDS011;254;48.524;8.926;2022-08-03T02:47:02;6.0;;;4.9;;
537;SDS011;254;48.524;8.926;2022-08-03T02:48:03;5.8;;;4.7;;
537;SDS011;254;48.524;8.926;2022-08-03T02:49:02;5.4;;;4.9;;
537;SDS011;254;48.524;8.926;2022-08-03T02:50:02;5.1;;;4.7;;
537;SDS011;254;48.524;8.926;2022-08-03T02:51:03;5.0;;;4.5;;
537;SDS011;254;48.524;8.926;2022-08-03T02:52:02;5.2;;;4.7;;
537;SDS011;254;48.524;8.926;2022-08-03T02:53:03;5.2;;;4.7;;
537;SDS011;254;48.524;8.926;2022-08-03T02:54:03;4.8;;;4.3;;
537;SDS011;254;48.524;8.926;2022-08-03T02:55:02;6.3;;;4.5;;
537;SDS011;254;48.524;8.926;2022-08-03T02:56:02;6.8;;;5.0;;
537;SDS011;254;48.524;8.926;2022-08-03T02:57:02;5.1;;;4.6;;
537;SDS011;254;48.524;8.926;2022-08-03T02:58:02;4.8;;;4.3;;
537;SDS011;254;48.524;8.926;2022-08-03T02:59:02;5.2;;;4.7;;
537;SDS011;254;48.524;8.926;2022-08-03T03:00:03;5.5;;;4.9;;
537;SDS011;254;48.524;8.926;2022-08-03T03:01:02;5.0;;;4.5;;
537;SDS011;254;48.524;8.926;2022-08-03T03:02:04;4.5;;;4.1;;
537;SDS011;254;48.524;8.926;2022-08-03T03:03:02;4.6;;;4.2;;
537;SDS011;254;48.524;8.926;2022-08-03T03:04:02;8.1;;;4.2;;
537;SDS011;254;48.524;8.926;2022-08-03T03:05:02;5.2;;;4.0;;
537;SDS011;254;48.524;8.926;2022-08-03T03:06:02;4.7;;;4.2;;
537;SDS011;254;48.524;8.926;2022-08-03T03:07:02;4.9;;;4.3;;
537;SDS011;254;48.524;8.926;2022-08-03T03:08:02;5.3;;;4.9;;
537;SDS011;254;48.524;8.926;2022-08-03T03:09:02;6.4;;;4.4;;
537;SDS011;254;48.524;8.926;2022-08-03T03:10:03;4.8;;;4.4;;
537;SDS011;254;48.524;8.926;2022-08-03T03:11:02;5.1;;;4.6;;
537;SDS011;254;48.524;8.926;2022-08-03T03:12:02;5.1;;;4.7;;
537;SDS011;254;48.524;8.926;2022-08-03T03:13:02;5.9;;;4.6;;
537;SDS011;254;48.524;8.926;2022-08-03T03:14:03;5.3;;;4.8;;
537;SDS011;254;48.524;8.926;2022-08-03T03:15:02;5.9;;;4.7;;
537;SDS011;254;48.524;8.926;2022-08-03T03:16:03;5.6;;;4.7;;
537;SDS011;254;48.524;8.926;2022-08-03T03:17:02;4.9;;;4.5;;
537;SDS011;254;48.524;8.926;2022-08-03T03:18:02;5.6;;;5.1;;
537;SDS011;254;48.524;8.926;2022-08-03T03:19:02;5.2;;;4.8;;
537;SDS011;254;48.524;8.926;2022-08-03T03:20:02;4.9;;;4.4;;
537;SDS011;254;48.524;8.926;2022-08-03T03:21:03;5.2;;;4.7;;
537;SDS011;254;48.524;8.926;2022-08-03T03:22:02;5.3;;;4.8;;
537;SDS011;254;48.524;8.926;2022-08-03T03:23:03;4.8;;;4.4;;
537;SDS011;254;48.524;8.926;2022-08-03T03:24:03;6.1;;;5.0;;
537;SDS011;254;48.524;8.926;2022-08-03T03:25:02;5.2;;;4.7;;
537;SDS011;254;48.524;8.926;2022-08-03T03:26:02;5.5;;;5.0;;
537;SDS011;254;48.524;8.926;2022-08-03T03:27:03;5.5;;;5.0;;
537;SDS011;254;48.524;8.926;2022-08-03T03:28:05;5.6;;;5.0;;
537;SDS011;254;48.524;8.926;2022-08-03T03:29:03;6.0;;;5.0;;
537;SDS011;254;48.524;8.926;2022-08-03T03:30:02;7.3;;;5.4;;
537;SDS011;254;48.524;8.926;2022-08-03T03:31:03;6.3;;;4.9;;
537;SDS011;254;48.524;8.926;2022-08-03T03:32:02;6.4;;;5.3;;
537;SDS011;254;48.524;8.926;2022-08-03T03:33:02;5.3;;;4.9;;
537;SDS011;254;48.524;8.926;2022-08-03T03:34:02;6.5;;;5.4;;
537;SDS011;254;48.524;8.926;2022-08-03T03:35:03;7.2;;;5.5;;
537;SDS011;254;48.524;8.926;2022-08-03T03:36:02;5.7;;;5.1;;
537;SDS011;254;48.524;8.926;2022-08-03T03:37:02;7.0;;;5.2;;
537;SDS011;254;48.524;8.926;2022-08-03T03:38:02;5.5;;;5.0;;
537;SDS011;254;48.524;8.926;2022-08-03T03:39:03;5.1;;;4.6;;
537;SDS011;254;48.524;8.926;2022-08-03T03:40:02;5.5;;;4.9;;
537;SDS011;254;48.524;8.926;2022-08-03T03:41:03;5.6;;;5.1;;
537;SDS011;254;48.524;8.926;2022-08-03T03:42:02;5.2;;;4.7;;
537;SDS011;254;48.524;8.926;2022-08-03T03:43:04;5.3;;;4.8;;
537;SDS011;254;48.524;8.926;2022-08-03T03:44:03;5.1;;;4.6;;
537;SDS011;254;48.524;8.926;2022-08-03T03:45:02;5.1;;;4.7;;
537;SDS011;254;48.524;8.926;2022-08-03T03:46:02;4.9;;;4.4;;
537;SDS011;254;48.524;8.926;2022-08-03T03:47:02;5.8;;;4.6;;
537;SDS011;254;48.524;8.926;2022-08-03T03:48:03;5.3;;;4.6;;
537;SDS011;254;48.524;8.926;2022-08-03T03:49:04;5.7;;;4.9;;
537;SDS011;254;48.524;8.926;2022-08-03T03:50:03;5.6;;;4.7;;
537;SDS011;254;48.524;8.926;2022-08-03T03:51:02;5.2;;;4.7;;
537;SDS011;254;48.524;8.926;2022-08-03T03:52:02;5.4;;;4.9;;
537;SDS011;254;48.524;8.926;2022-08-03T03:53:02;5.3;;;4.8;;
537;SDS011;254;48.524;8.926;2022-08-03T03:54:03;6.1;;;5.0;;
537;SDS011;254;48.524;8.926;2022-08-03T03:55:03;5.6;;;5.0;;
537;SDS011;254;48.524;8.926;2022-08-03T03:56:02;4.9;;;4.5;;
537;SDS011;254;48.524;8.926;2022-08-03T03:57:02;5.4;;;4.7;;
537;SDS011;254;48.524;8.926;2022-08-03T03:58:02;5.0;;;4.6;;
537;SDS011;254;48.524;8.926;2022-08-03T03:59:02;6.5;;;4.7;;
537;SDS011;254;48.524;8.926;2022-08-03T04:00:03;7.2;;;4.9;;
537;SDS011;254;48.524;8.926;2022-08-03T04:01:02;6.0;;;5.1;;
537;SDS011;254;48.524;8.926;2022-08-03T04:02:02;7.2;;;4.8;;
537;SDS011;254;48.524;8.926;2022-08-03T04:03:02;6.7;;;5.3;;
537;SDS011;254;48.524;8.926;2022-08-03T04:04:02;5.6;;;5.1;;
537;SDS011;254;48.524;8.926;2022-08-03T04:05:03;6.3;;;5.2;;
537;SDS011;254;48.524;8.926;2022-08-03T04:06:02;4.9;;;4.5;;
537;SDS011;254;48.524;8.926;2022-08-03T04:07:03;6.1;;;5.0;;
537;SDS011;254;48.524;8.926;2022-08-03T04:08:02;5.7;;;5.1;;
537;SDS011;254;48.524;8.926;2022-08-03T04:09:02;5.2;;;4.8;;
537;SDS011;254;48.524;8.926;2022-08-03T04:10:04;5.7;;;5.1;;
537;SDS011;254;48.524;8.926;2022-08-03T04:11:05;5.5;;;5.0;;
537;SDS011;254;48.524;8.926;2022-08-03T04:12:02;5.8;;;5.1;;
537;SDS011;254;48.524;8.926;2022-08-03T04:13:02;5.8;;;5.3;;
537;SDS011;254;48.524;8.926;2022-08-03T04:14:02;7.3;;;5.1;;
537;SDS011;254;48.524;8.926;2022-08-03T04:15:03;5.3;;;4.8;;
537;SDS011;254;48.524;8.926;2022-08-03T04:16:03;6.4;;;5.0;;
537;SDS011;254;48.524;8.926;2022-08-03T04:17:04;5.6;;;5.1;;
537;SDS011;254;48.524;8.926;2022-08-03T04:18:02;5.8;;;5.2;;
537;SDS011;254;48.524;8.926;2022-08-03T04:19:03;6.9;;;5.4;;
537;SDS011;254;48.524;8.926;2022-08-03T04:20:02;5.4;;;5.0;;
537;SDS011;254;48.524;8.926;2022-08-03T04:21:03;6.0;;;5.4;;
537;SDS011;254;48.524;8.926;2022-08-03T04:22:02;6.0;;;5.3;;
537;SDS011;254;48.524;8.926;2022-08-03T04:23:03;6.1;;;5.5;;
537;SDS011;254;48.524;8.926;2022-08-03T04:24:02;5.9;;;5.4;;
537;SDS011;254;48.524;8.926;2022-08-03T04:25:04;5.4;;;4.9;;
537;SDS011;254;48.524;8.926;2022-08-03T04:26:02;5.2;;;4.8;;
537;SDS011;254;48.524;8.926;2022-08-03T04:27:04;5.9;;;5.3;;
537;SDS011;254;48.524;8.926;2022-08-03T04:28:03;6.1;;;5.3;;
537;SDS011;254;48.524;8.926;2022-08-03T04:29:03;5.6;;;5.1;;
537;SDS011;254;48.524;8.926;2022-08-03T04:30:03;5.4;;;4.9;;
537;SDS011;254;48.524;8.926;2022-08-03T04:31:03;5.4;;;4.9;;
537;SDS011;254;48.524;8.926;2022-08-03T04:32:03;5.2;;;4.7;;
537;SDS011;254;48.524;8.926;2022-08-03T04:33:02;5.8;;;4.9;;
537;SDS011;254;48.524;8.926;2022-08-03T04:34:02;5.2;;;4.7;;
537;SDS011;254;48.524;8.926;2022-08-03T04:35:03;5.3;;;4.8;;
537;SDS011;254;48.524;8.926;2022-08-03T04:36:04;5.5;;;5.0;;
537;SDS011;254;48.524;8.926;2022-08-03T04:37:04;5.7;;;5.2;;
537;SDS011;254;48.524;8.926;2022-08-03T04:38:02;5.7;;;5.2;;
537;SDS011;254;48.524;8.926;2022-08-03T04:39:03;6.6;;;5.1;;
537;SDS011;254;48.524;8.926;2022-08-03T04:40:05;5.4;;;4.9;;
537;SDS011;254;48.524;8.926;2022-08-03T04:41:02;5.1;;;4.5;;
537;SDS011;254;48.524;8.926;2022-08-03T04:42:02;7.7;;;4.9;;
537;SDS011;254;48.524;8.926;2022-08-03T04:43:02;5.4;;;4.9;;
537;SDS011;254;48.524;8.926;2022-08-03T04:44:02;4.9;;;4.5;;
537;SDS011;254;48.524;8.926;2022-08-03T04:45:02;5.5;;;5.0;;
537;SDS011;254;48.524;8.926;2022-08-03T04:46:02;5.4;;;4.9;;
537;SDS011;254;48.524;8.926;2022-08-03T04:47:02;5.6;;;5.1;;
537;SDS011;254;48.524;8.926;2022-08-03T04:48:02;6.5;;;5.4;;
537;SDS011;254;48.524;8.926;2022-08-03T04:49:03;5.9;;;5.1;;
537;SDS011;254;48.524;8.926;2022-08-03T04:50:03;6.1;;;5.5;;
537;SDS011;254;48.524;8.926;2022-08-03T04:51:02;4.9;;;4.4;;
537;SDS011;254;48.524;8.926;2022-08-03T04:52:03;7.9;;;5.5;;
537;SDS011;254;48.524;8.926;2022-08-03T04:53:01;5.6;;;5.1;;
537;SDS011;254;48.524;8.926;2022-08-03T04:54:02;5.2;;;4.8;;
537;SDS011;254;48.524;8.926;2022-08-03T04:55:03;5.0;;;4.6;;
537;SDS011;254;48.524;8.926;2022-08-03T04:56:03;5.4;;;4.7;;
537;SDS011;254;48.524;8.926;2022-08-03T04:57:02;5.9;;;4.7;;
537;SDS011;254;48.524;8.926;2022-08-03T04:58:02;5.4;;;4.9;;
537;SDS011;254;48.524;8.926;2022-08-03T04:59:02;5.2;;;4.7;;
537;SDS011;254;48.524;8.926;2022-08-03T05:00:03;4.8;;;4.3;;
537;SDS011;254;48.524;8.926;2022-08-03T05:01:02;5.6;;;5.1;;
537;SDS011;254;48.524;8.926;2022-08-03T05:02:02;5.4;;;5.0;;
537;SDS011;254;48.524;8.926;2022-08-03T05:03:02;5.2;;;4.7;;
537;SDS011;254;48.524;8.926;2022-08-03T05:04:02;6.2;;;4.6;;
537;SDS011;254;48.524;8.926;2022-08-03T05:05:03;5.2;;;4.8;;
537;SDS011;254;48.524;8.926;2022-08-03T05:06:02;5.4;;;4.9;;
537;SDS011;254;48.524;8.926;2022-08-03T05:07:02;5.3;;;4.8;;
537;SDS011;254;48.524;8.926;2022-08-03T05:08:02;5.5;;;5.0;;
537;SDS011;254;48.524;8.926;2022-08-03T05:09:03;5.5;;;5.0;;
537;SDS011;254;48.524;8.926;2022-08-03T05:10:02;5.0;;;4.6;;
537;SDS011;254;48.524;8.926;2022-08-03T05:11:02;5.2;;;4.7;;
537;SDS011;254;48.524;8.926;2022-08-03T05:12:03;5.1;;;4.6;;
537;SDS011;254;48.524;8.926;2022-08-03T05:13:02;5.2;;;4.8;;
537;SDS011;254;48.524;8.926;2022-08-03T05:14:02;5.3;;;4.9;;
537;SDS011;254;48.524;8.926;2022-08-03T05:15:03;6.9;;;4.8;;
537;SDS011;254;48.524;8.926;2022-08-03T05:16:04;5.2;;;4.7;;
537;SDS011;254;48.524;8.926;2022-08-03T05:17:02;5.2;;;4.6;;
537;SDS011;254;48.524;8.926;2022-08-03T05:18:03;5.3;;;4.9;;
537;SDS011;254;48.524;8.926;2022-08-03T05:19:02;5.0;;;4.6;;
537;SDS011;254;48.524;8.926;2022-08-03T05:20:03;5.1;;;4.6;;
537;SDS011;254;48.524;8.926;2022-08-03T05:21:02;5.0;;;4.5;;
537;SDS011;254;48.524;8.926;2022-08-03T05:22:02;4.9;;;4.5;;
537;SDS011;254;48.524;8.926;2022-08-03T05:23:02;5.6;;;5.1;;
537;SDS011;254;48.524;8.926;2022-08-03T05:24:02;4.7;;;4.3;;
537;SDS011;254;48.524;8.926;2022-08-03T05:25:02;5.7;;;5.2;;
537;SDS011;254;48.524;8.926;2022-08-03T05:26:03;4.8;;;4.3;;
537;SDS011;254;48.524;8.926;2022-08-03T05:27:02;5.1;;;4.6;;
537;SDS011;254;48.524;8.926;2022-08-03T05:28:04;6.8;;;4.2;;
537;SDS011;254;48.524;8.926;2022-08-03T05:29:03;5.3;;;4.6;;
537;SDS011;254;48.524;8.926;2022-08-03T05:30:02;5.0;;;4.5;;
537;SDS011;254;48.524;8.926;2022-08-03T05:31:02;4.5;;;4.1;;
537;SDS011;254;48.524;8.926;2022-08-03T05:32:03;5.5;;;4.7;;
537;SDS011;254;48.524;8.926;2022-08-03T05:33:01;4.7;;;4.3;;
537;SDS011;254;48.524;8.926;2022-08-03T05:34:02;4.9;;;4.5;;
537;SDS011;254;48.524;8.926;2022-08-03T05:35:03;4.7;;;4.3;;
537;SDS011;254;48.524;8.926;2022-08-03T05:36:02;4.8;;;4.3;;
537;SDS011;254;48.524;8.926;2022-08-03T05:37:02;4.9;;;4.4;;
537;SDS011;254;48.524;8.926;2022-08-03T05:38:02;5.2;;;4.7;;
537;SDS011;254;48.524;8.926;2022-08-03T05:39:02;5.0;;;4.5;;
537;SDS011;254;48.524;8.926;2022-08-03T05:40:03;5.0;;;4.6;;
537;SDS011;254;48.524;8.926;2022-08-03T05:41:02;6.4;;;4.3;;
537;SDS011;254;48.524;8.926;2022-08-03T05:42:02;4.8;;;4.3;;
537;SDS011;254;48.524;8.926;2022-08-03T05:43:02;4.5;;;4.1;;
537;SDS011;254;48.524;8.926;2022-08-03T05:44:02;4.3;;;3.9;;
537;SDS011;254;48.524;8.926;2022-08-03T05:45:02;4.5;;;4.1;;
537;SDS011;254;48.524;8.926;2022-08-03T05:46:03;4.5;;;4.1;;
537;SDS011;254;48.524;8.926;2022-08-03T05:47:01;5.9;;;4.6;;
537;SDS011;254;48.524;8.926;2022-08-03T05:48:02;5.0;;;4.2;;
537;SDS011;254;48.524;8.926;2022-08-03T05:49:02;5.0;;;4.5;;
537;SDS011;254;48.524;8.926;2022-08-03T05:50:03;4.3;;;3.9;;
537;SDS011;254;48.524;8.926;2022-08-03T05:51:02;4.5;;;4.1;;
537;SDS011;254;48.524;8.926;2022-08-03T05:52:02;4.7;;;4.2;;
537;SDS011;254;48.524;8.926;2022-08-03T05:53:02;4.9;;;4.2;;
537;SDS011;254;48.524;8.926;2022-08-03T05:54:02;4.9;;;4.1;;
537;SDS011;254;48.524;8.926;2022-08-03T05:55:04;4.5;;;4.1;;
537;SDS011;254;48.524;8.926;2022-08-03T05:56:02;4.6;;;4.2;;
537;SDS011;254;48.524;8.926;2022-08-03T05:57:02;4.6;;;4.2;;
537;SDS011;254;48.524;8.926;2022-08-03T05:58:02;4.4;;;4.0;;
537;SDS011;254;48.524;8.926;2022-08-03T05:59:02;4.5;;;4.1;;
537;SDS011;254;48.524;8.926;2022-08-03T06:00:03;4.6;;;4.2;;
537;SDS011;254;48.524;8.926;2022-08-03T06:01:02;4.7;;;4.3;;
537;SDS011;254;48.524;8.926;2022-08-03T06:02:03;5.0;;;4.5;;
537;SDS011;254;48.524;8.926;2022-08-03T06:03:03;5.4;;;4.4;;
537;SDS011;254;48.524;8.926;2022-08-03T06:04:01;4.7;;;4.3;;
537;SDS011;254;48.524;8.926;2022-08-03T06:05:02;4.8;;;4.4;;
537;SDS011;254;48.524;8.926;2022-08-03T06:06:02;5.1;;;4.6;;
537;SDS011;254;48.524;8.926;2022-08-03T06:07:02;4.9;;;4.4;;
537;SDS011;254;48.524;8.926;2022-08-03T06:08:02;4.9;;;4.5;;
537;SDS011;254;48.524;8.926;2022-08-03T06:09:02;4.4;;;4.0;;
537;SDS011;254;48.524;8.926;2022-08-03T06:10:02;4.9;;;4.4;;
537;SDS011;254;48.524;8.926;2022-08-03T06:11:03;4.8;;;4.3;;
537;SDS011;254;48.524;8.926;2022-08-03T06:12:02;4.8;;;4.3;;
537;SDS011;254;48.524;8.926;2022-08-03T06:13:02;4.3;;;3.9;;
537;SDS011;254;48.524;8.926;2022-08-03T06:14:02;4.3;;;4.0;;
537;SDS011;254;48.524;8.926;2022-08-03T06:15:03;4.6;;;3.8;;
537;SDS011;254;48.524;8.926;2022-08-03T06:16:02;4.7;;;4.3;;
537;SDS011;254;48.524;8.926;2022-08-03T06:17:02;4.5;;;4.1;;
537;SDS011;254;48.524;8.926;2022-08-03T06:18:02;4.7;;;4.3;;
537;SDS011;254;48.524;8.926;2022-08-03T06:19:03;5.4;;;4.1;;
537;SDS011;254;48.524;8.926;2022-08-03T06:20:02;4.4;;;4.0;;
537;SDS011;254;48.524;8.926;2022-08-03T06:21:03;4.3;;;4.0;;
537;SDS011;254;48.524;8.926;2022-08-03T06:22:02;5.1;;;4.6;;
537;SDS011;254;48.524;8.926;2022-08-03T06:23:02;4.2;;;3.8;;
537;SDS011;254;48.524;8.926;2022-08-03T06:24:03;4.3;;;3.9;;
537;SDS011;254;48.524;8.926;2022-08-03T06:25:02;4.4;;;4.0;;
537;SDS011;254;48.524;8.926;2022-08-03T06:26:03;4.4;;;4.0;;
537;SDS011;254;48.524;8.926;2022-08-03T06:27:02;4.6;;;4.0;;
537;SDS011;254;48.524;8.926;2022-08-03T06:28:02;4.6;;;4.0;;
537;SDS011;254;48.524;8.926;2022-08-03T06:29:02;4.6;;;4.2;;
537;SDS011;254;48.524;8.926;2022-08-03T06:30:02;4.7;;;3.9;;
537;SDS011;254;48.524;8.926;2022-08-03T06:31:01;5.6;;;4.4;;
537;SDS011;254;48.524;8.926;2022-08-03T06:32:02;4.1;;;3.7;;
537;SDS011;254;48.524;8.926;2022-08-03T06:33:03;6.5;;;4.1;;
537;SDS011;254;48.524;8.926;2022-08-03T06:34:02;5.2;;;4.2;;
537;SDS011;254;48.524;8.926;2022-08-03T06:35:03;4.9;;;3.6;;
537;SDS011;254;48.524;8.926;2022-08-03T06:36:02;4.5;;;4.1;;
537;SDS011;254;48.524;8.926;2022-08-03T06:37:03;4.1;;;3.7;;